createdAt,value
2019-03-30T00:00:19.159Z,58.00
2019-03-30T00:02:45.465Z,57.68
2019-03-30T00:05:11.766Z,57.37
2019-03-30T00:07:38.078Z,57.42
2019-03-30T00:10:04.396Z,57.43
2019-03-30T00:12:30.699Z,56.85
2019-03-30T00:14:57.003Z,56.70
2019-03-30T00:17:23.315Z,56.73
2019-03-30T00:19:49.619Z,56.93
2019-03-30T00:22:15.928Z,56.99
2019-03-30T00:24:42.235Z,57.10
2019-03-30T00:27:08.541Z,57.16
2019-03-30T00:29:34.842Z,57.17
2019-03-30T00:32:01.153Z,57.26
2019-03-30T00:34:27.455Z,57.84
2019-03-30T00:36:53.754Z,58.39
2019-03-30T00:39:20.070Z,58.82
2019-03-30T00:41:46.378Z,59.34
2019-03-30T00:44:12.686Z,59.32
2019-03-30T00:46:38.983Z,59.65
2019-03-30T00:49:05.293Z,59.99
2019-03-30T00:51:31.595Z,60.09
2019-03-30T00:53:57.895Z,59.75
2019-03-30T00:56:24.199Z,59.87
2019-03-30T00:58:50.506Z,59.70
2019-03-30T01:01:16.817Z,59.10
2019-03-30T01:03:43.157Z,58.57
2019-03-30T01:06:09.431Z,58.25
2019-03-30T01:08:35.736Z,58.31
2019-03-30T01:11:02.041Z,59.32
2019-03-30T01:13:28.351Z,59.96
2019-03-30T01:15:54.651Z,60.15
2019-03-30T01:18:20.960Z,60.25
2019-03-30T01:20:47.331Z,60.72
2019-03-30T01:23:13.612Z,60.97
2019-03-30T01:25:39.916Z,61.10
2019-03-30T01:28:06.229Z,60.80
2019-03-30T01:30:32.582Z,61.19
2019-03-30T01:32:58.876Z,61.29
2019-03-30T01:35:25.282Z,61.42
2019-03-30T01:37:51.498Z,62.14
2019-03-30T01:40:17.816Z,62.29
2019-03-30T01:42:44.309Z,62.46
2019-03-30T01:45:10.632Z,63.01
2019-03-30T01:47:36.936Z,63.00
2019-03-30T01:50:16.149Z,62.88
2019-03-30T01:52:29.558Z,62.81
2019-03-30T01:54:55.855Z,62.83
2019-03-30T01:57:22.158Z,63.04
2019-03-30T01:59:48.463Z,63.43
2019-03-30T02:02:15.029Z,63.63
2019-03-30T02:04:41.330Z,63.25
2019-03-30T02:07:07.639Z,63.02
2019-03-30T02:09:33.960Z,63.22
2019-03-30T02:12:00.307Z,63.08
2019-03-30T02:14:26.612Z,63.10
2019-03-30T02:16:52.914Z,62.97
2019-03-30T02:19:19.230Z,62.91
2019-03-30T02:21:45.529Z,62.67
2019-03-30T02:24:11.834Z,62.80
2019-03-30T02:26:38.162Z,63.11
2019-03-30T02:29:04.467Z,63.33
2019-03-30T02:31:30.775Z,63.32
2019-03-30T02:33:57.085Z,63.39
2019-03-30T02:36:23.393Z,63.53
2019-03-30T02:38:49.699Z,63.86
2019-03-30T02:41:16.000Z,64.14
2019-03-30T02:43:42.315Z,64.34
2019-03-30T02:46:08.628Z,64.77
2019-03-30T02:48:34.927Z,64.89
2019-03-30T02:51:01.265Z,65.08
2019-03-30T02:53:27.560Z,65.34
2019-03-30T02:55:53.882Z,65.87
2019-03-30T02:58:20.193Z,66.25
2019-03-30T03:00:46.492Z,66.45
2019-03-30T03:03:12.805Z,66.08
2019-03-30T03:05:39.109Z,65.83
2019-03-30T03:08:05.436Z,65.91
2019-03-30T03:10:31.723Z,65.62
2019-03-30T03:12:58.050Z,66.21
2019-03-30T03:15:24.354Z,65.98
2019-03-30T03:17:50.661Z,66.15
2019-03-30T03:20:16.982Z,66.15
2019-03-30T03:22:43.311Z,65.99
2019-03-30T03:25:09.634Z,66.19
2019-03-30T03:27:35.925Z,65.84
2019-03-30T03:30:02.243Z,65.72
2019-03-30T03:32:28.550Z,65.77
2019-03-30T03:34:54.886Z,65.57
2019-03-30T03:37:21.189Z,65.44
2019-03-30T03:39:47.493Z,65.23
2019-03-30T03:42:13.803Z,65.13
2019-03-30T03:44:40.119Z,64.94
2019-03-30T03:47:06.428Z,65.13
2019-03-30T03:49:32.724Z,65.37
2019-03-30T03:51:59.034Z,65.50
2019-03-30T03:54:25.337Z,65.49
2019-03-30T03:56:51.646Z,65.57
2019-03-30T03:59:17.950Z,65.52
2019-03-30T04:01:44.265Z,65.34
2019-03-30T04:04:10.632Z,65.28
2019-03-30T04:06:36.948Z,64.92
2019-03-30T04:09:03.255Z,64.94
2019-03-30T04:11:29.552Z,65.35
2019-03-30T04:13:55.857Z,65.18
2019-03-30T04:16:22.176Z,65.30
2019-03-30T04:18:48.733Z,65.54
2019-03-30T04:21:14.789Z,65.64
2019-03-30T04:23:41.133Z,65.64
2019-03-30T04:26:07.434Z,65.82
2019-03-30T04:28:33.739Z,65.91
2019-03-30T04:31:00.053Z,65.53
2019-03-30T04:33:26.350Z,65.62
2019-03-30T04:35:52.653Z,65.46
2019-03-30T04:38:18.962Z,65.22
2019-03-30T04:40:45.270Z,65.54
2019-03-30T04:43:11.569Z,65.22
2019-03-30T04:45:37.873Z,64.57
2019-03-30T04:48:04.183Z,64.03
2019-03-30T04:50:30.480Z,63.61
2019-03-30T04:52:56.790Z,64.12
2019-03-30T04:55:23.087Z,64.66
2019-03-30T04:57:49.615Z,64.33
2019-03-30T05:00:15.696Z,63.98
2019-03-30T05:02:41.999Z,63.53
2019-03-30T05:05:08.309Z,62.46
2019-03-30T05:07:34.616Z,61.33
2019-03-30T05:10:00.923Z,60.39
2019-03-30T05:12:27.231Z,59.79
2019-03-30T05:14:53.540Z,58.67
2019-03-30T05:17:19.843Z,57.94
2019-03-30T05:19:46.156Z,58.06
2019-03-30T05:22:16.327Z,57.79
2019-03-30T05:24:38.772Z,56.81
2019-03-30T05:27:05.080Z,55.32
2019-03-30T05:29:31.390Z,55.04
2019-03-30T05:31:57.708Z,54.82
2019-03-30T05:34:24.017Z,54.75
2019-03-30T05:36:50.402Z,54.54
2019-03-30T05:39:16.805Z,54.33
2019-03-30T05:41:43.200Z,54.37
2019-03-30T05:44:09.515Z,53.48
2019-03-30T05:46:35.831Z,53.24
2019-03-30T05:49:02.147Z,52.33
2019-03-30T05:51:28.456Z,52.69
2019-03-30T05:53:54.785Z,53.03
2019-03-30T05:56:21.096Z,52.88
2019-03-30T05:58:47.407Z,52.76
2019-03-30T06:01:13.740Z,52.97
2019-03-30T06:03:40.318Z,52.61
2019-03-30T06:06:06.644Z,52.49
2019-03-30T06:08:32.955Z,52.26
2019-03-30T06:10:59.297Z,51.56
2019-03-30T06:13:25.605Z,51.45
2019-03-30T06:15:51.903Z,50.84
2019-03-30T06:18:18.451Z,51.19
2019-03-30T06:20:44.760Z,50.80
2019-03-30T06:23:11.072Z,51.22
2019-03-30T06:25:37.390Z,51.14
2019-03-30T06:28:04.283Z,51.13
2019-03-30T06:30:30.607Z,50.27
2019-03-30T06:32:56.948Z,49.79
2019-03-30T06:35:23.256Z,48.51
2019-03-30T06:37:49.559Z,48.35
2019-03-30T06:40:15.880Z,47.79
2019-03-30T06:42:42.219Z,47.76
2019-03-30T06:45:08.523Z,47.54
2019-03-30T06:47:34.827Z,47.05
2019-03-30T06:50:01.146Z,48.06
2019-03-30T06:52:27.460Z,47.93
2019-03-30T06:54:53.795Z,47.12
2019-03-30T06:57:20.112Z,46.89
2019-03-30T06:59:46.654Z,45.93
2019-03-30T07:02:12.964Z,44.48
2019-03-30T07:04:39.283Z,44.35
2019-03-30T07:07:05.593Z,44.09
2019-03-30T07:09:31.915Z,44.20
2019-03-30T07:11:58.230Z,43.11
2019-03-30T07:14:24.549Z,43.88
2019-03-30T07:16:50.871Z,44.85
2019-03-30T07:19:17.179Z,45.06
2019-03-30T07:21:43.484Z,44.46
2019-03-30T07:24:09.965Z,45.27
2019-03-30T07:26:36.267Z,44.50
2019-03-30T07:29:02.573Z,44.85
2019-03-30T07:31:28.884Z,43.33
2019-03-30T07:33:55.188Z,42.35
2019-03-30T07:36:21.505Z,42.37
2019-03-30T07:38:47.816Z,42.25
2019-03-30T07:41:14.119Z,42.33
2019-03-30T07:43:40.458Z,43.23
2019-03-30T07:46:06.797Z,40.64
2019-03-30T07:48:33.099Z,41.02
2019-03-30T07:50:59.407Z,40.62
2019-03-30T07:53:27.043Z,41.12
2019-03-30T07:55:52.036Z,40.78
2019-03-30T07:58:18.653Z,41.16
2019-03-30T08:00:44.965Z,41.11
2019-03-30T08:03:11.277Z,41.52
2019-03-30T08:05:37.589Z,40.83
2019-03-30T08:08:03.903Z,40.59
2019-03-30T08:10:30.220Z,41.26
2019-03-30T08:12:56.543Z,41.33
2019-03-30T08:15:22.846Z,39.41
2019-03-30T08:17:49.212Z,39.85
2019-03-30T08:20:15.467Z,39.02
2019-03-30T08:22:41.784Z,39.05
2019-03-30T08:25:08.090Z,38.40
2019-03-30T08:27:34.402Z,38.75
2019-03-30T08:30:00.703Z,38.41
2019-03-30T08:32:27.018Z,39.41
2019-03-30T08:34:53.326Z,39.48
2019-03-30T08:37:19.633Z,39.74
2019-03-30T08:39:45.939Z,39.30
2019-03-30T08:42:12.252Z,39.25
2019-03-30T08:44:38.564Z,39.05
2019-03-30T08:47:05.019Z,38.56
2019-03-30T08:49:31.376Z,38.87
2019-03-30T08:51:57.687Z,37.12
2019-03-30T08:54:24.131Z,37.81
2019-03-30T08:56:50.445Z,38.08
2019-03-30T08:59:16.755Z,37.94
2019-03-30T09:01:43.105Z,36.52
2019-03-30T09:04:09.407Z,36.75
2019-03-30T09:06:35.717Z,37.86
2019-03-30T09:09:02.080Z,38.91
2019-03-30T09:11:28.392Z,38.71
2019-03-30T09:13:54.697Z,36.94
2019-03-30T09:16:21.023Z,36.91
2019-03-30T09:18:47.336Z,36.23
2019-03-30T09:21:13.645Z,36.59
2019-03-30T09:23:39.950Z,37.32
2019-03-30T09:26:06.261Z,36.43
2019-03-30T09:28:32.569Z,35.03
2019-03-30T09:30:58.877Z,35.34
2019-03-30T09:33:25.185Z,36.29
2019-03-30T09:35:51.495Z,36.50
2019-03-30T09:38:17.831Z,36.14
2019-03-30T09:40:44.144Z,35.99
2019-03-30T09:43:10.458Z,35.95
2019-03-30T09:45:36.777Z,34.72
2019-03-30T09:48:03.129Z,33.24
2019-03-30T09:50:29.444Z,32.56
2019-03-30T09:52:55.741Z,33.25
2019-03-30T09:55:22.084Z,33.10
2019-03-30T09:57:48.368Z,32.90
2019-03-30T10:00:14.681Z,32.58
2019-03-30T10:02:41.063Z,33.67
2019-03-30T10:05:08.089Z,34.28
2019-03-30T10:07:34.393Z,33.92
2019-03-30T10:10:01.118Z,33.94
2019-03-30T10:12:27.429Z,33.79
2019-03-30T10:14:55.052Z,33.73
2019-03-30T10:17:21.320Z,34.02
2019-03-30T10:19:58.043Z,33.48
2019-03-30T10:22:13.936Z,32.57
2019-03-30T10:24:40.254Z,32.43
2019-03-30T10:27:06.560Z,34.12
2019-03-30T10:29:32.865Z,35.13
2019-03-30T10:32:00.063Z,35.05
2019-03-30T10:34:25.515Z,34.53
2019-03-30T10:36:51.826Z,33.43
2019-03-30T10:39:18.141Z,33.15
2019-03-30T10:41:44.455Z,32.22
2019-03-30T10:44:10.760Z,32.97
2019-03-30T10:46:37.073Z,34.17
2019-03-30T10:49:04.017Z,34.75
2019-03-30T10:51:30.329Z,35.42
2019-03-30T10:53:56.641Z,36.89
2019-03-30T10:56:22.947Z,37.02
2019-03-30T10:58:49.378Z,35.80
2019-03-30T11:01:15.685Z,35.88
2019-03-30T11:03:41.994Z,36.89
2019-03-30T11:06:08.308Z,36.38
2019-03-30T11:08:34.612Z,35.26
2019-03-30T11:11:00.928Z,33.76
2019-03-30T11:13:27.358Z,34.34
2019-03-30T11:15:53.712Z,33.22
2019-03-30T11:18:20.016Z,31.55
2019-03-30T11:20:46.323Z,31.82
2019-03-30T11:23:12.635Z,31.43
2019-03-30T11:25:38.955Z,31.14
2019-03-30T11:28:05.271Z,31.69
2019-03-30T11:30:31.574Z,31.71
2019-03-30T11:32:57.883Z,31.35
2019-03-30T11:35:24.191Z,31.21
2019-03-30T11:37:50.505Z,31.40
2019-03-30T11:40:16.977Z,30.56
2019-03-30T11:42:43.293Z,30.33
2019-03-30T11:45:09.611Z,30.10
2019-03-30T11:47:35.941Z,29.75
2019-03-30T11:50:02.238Z,29.55
2019-03-30T11:52:28.612Z,30.35
2019-03-30T11:54:54.919Z,30.31
2019-03-30T11:57:21.223Z,29.79
2019-03-30T11:59:47.540Z,30.33
2019-03-30T12:02:27.005Z,30.71
2019-03-30T12:04:40.197Z,31.70
2019-03-30T12:07:06.499Z,30.91
2019-03-30T12:09:32.832Z,30.07
2019-03-30T12:11:59.145Z,30.06
2019-03-30T12:14:25.453Z,30.43
2019-03-30T12:16:51.760Z,30.36
2019-03-30T12:19:18.079Z,30.14
2019-03-30T12:21:44.386Z,29.31
2019-03-30T12:24:10.693Z,29.44
2019-03-30T12:26:37.006Z,30.27
2019-03-30T12:29:03.326Z,29.29
2019-03-30T12:31:29.669Z,29.17
2019-03-30T12:33:55.981Z,29.33
2019-03-30T12:36:22.313Z,29.18
2019-03-30T12:38:48.621Z,29.37
2019-03-30T12:41:15.029Z,29.79
2019-03-30T12:43:41.288Z,29.31
2019-03-30T12:46:07.594Z,29.78
2019-03-30T12:48:33.904Z,30.64
2019-03-30T12:51:00.254Z,30.11
2019-03-30T12:53:26.583Z,30.62
2019-03-30T12:55:52.927Z,31.41
2019-03-30T12:58:19.247Z,31.50
2019-03-30T13:00:45.565Z,32.08
2019-03-30T13:03:11.877Z,32.99
2019-03-30T13:05:38.183Z,33.16
2019-03-30T13:08:04.493Z,33.21
2019-03-30T13:10:30.809Z,33.29
2019-03-30T13:12:57.120Z,32.91
2019-03-30T13:15:23.536Z,32.99
2019-03-30T13:17:49.804Z,33.25
2019-03-30T13:20:16.143Z,33.14
2019-03-30T13:22:42.461Z,33.84
2019-03-30T13:25:08.766Z,33.41
2019-03-30T13:27:35.071Z,33.67
2019-03-30T13:30:01.383Z,33.50
2019-03-30T13:32:27.692Z,34.02
2019-03-30T13:34:54.000Z,34.18
2019-03-30T13:37:20.387Z,33.56
2019-03-30T13:39:46.701Z,33.94
2019-03-30T13:42:13.029Z,34.11
2019-03-30T13:44:39.332Z,34.60
2019-03-30T13:47:05.639Z,34.44
2019-03-30T13:49:31.954Z,34.10
2019-03-30T13:51:58.264Z,34.61
2019-03-30T13:54:24.694Z,34.44
2019-03-30T13:56:51.008Z,34.70
2019-03-30T13:59:17.317Z,34.72
2019-03-30T14:01:43.637Z,34.95
2019-03-30T14:04:09.984Z,34.93
2019-03-30T14:06:36.292Z,35.14
2019-03-30T14:09:02.603Z,35.24
2019-03-30T14:11:28.909Z,35.46
2019-03-30T14:13:55.217Z,35.23
2019-03-30T14:16:21.529Z,35.22
2019-03-30T14:18:47.843Z,35.13
2019-03-30T14:21:14.148Z,34.96
2019-03-30T14:23:43.302Z,35.45
2019-03-30T14:26:06.888Z,35.24
2019-03-30T14:28:33.219Z,35.50
2019-03-30T14:30:59.563Z,35.32
2019-03-30T14:33:25.892Z,35.45
2019-03-30T14:35:52.226Z,35.53
2019-03-30T14:38:18.538Z,35.96
2019-03-30T14:40:44.872Z,36.15
2019-03-30T14:43:11.181Z,36.22
2019-03-30T14:45:37.489Z,36.48
2019-03-30T14:48:03.803Z,36.85
2019-03-30T14:50:30.107Z,36.64
2019-03-30T14:52:56.418Z,36.54
2019-03-30T14:55:22.737Z,36.87
2019-03-30T14:57:49.073Z,37.13
2019-03-30T15:00:15.438Z,37.25
2019-03-30T15:02:41.701Z,37.44
2019-03-30T15:05:08.028Z,37.58
2019-03-30T15:07:34.335Z,37.23
2019-03-30T15:10:00.645Z,37.17
2019-03-30T15:12:26.956Z,37.51
2019-03-30T15:14:53.285Z,37.60
2019-03-30T15:17:19.916Z,37.87
2019-03-30T15:19:46.221Z,37.83
2019-03-30T15:22:12.531Z,37.81
2019-03-30T15:24:38.868Z,37.97
2019-03-30T15:27:05.180Z,37.94
2019-03-30T15:29:31.490Z,38.15
2019-03-30T15:31:57.903Z,38.44
2019-03-30T15:34:24.216Z,38.69
2019-03-30T15:36:50.546Z,38.79
2019-03-30T15:39:16.870Z,38.65
2019-03-30T15:41:43.180Z,38.62
2019-03-30T15:44:09.497Z,38.60
2019-03-30T15:46:35.813Z,38.59
2019-03-30T15:49:02.158Z,38.98
2019-03-30T15:51:28.470Z,39.16
2019-03-30T15:53:54.779Z,39.17
2019-03-30T15:56:21.125Z,39.50
2019-03-30T15:58:47.431Z,39.63
2019-03-30T16:01:13.746Z,39.82
2019-03-30T16:03:40.067Z,40.09
2019-03-30T16:06:06.382Z,39.95
2019-03-30T16:08:32.725Z,39.86
2019-03-30T16:10:59.029Z,40.12
2019-03-30T16:13:25.343Z,40.27
2019-03-30T16:15:51.648Z,40.24
2019-03-30T16:18:17.949Z,40.46
2019-03-30T16:20:44.295Z,40.51
2019-03-30T16:23:10.620Z,40.51
2019-03-30T16:25:36.924Z,40.51
2019-03-30T16:28:03.254Z,40.91
2019-03-30T16:30:29.580Z,40.94
2019-03-30T16:32:55.886Z,41.33
2019-03-30T16:35:22.227Z,41.51
2019-03-30T16:37:48.623Z,41.68
2019-03-30T16:40:14.928Z,42.04
2019-03-30T16:42:41.231Z,41.99
2019-03-30T16:45:07.539Z,42.27
2019-03-30T16:47:33.865Z,42.29
2019-03-30T16:50:00.384Z,42.37
2019-03-30T16:52:26.486Z,42.60
2019-03-30T16:54:52.801Z,42.87
2019-03-30T16:57:19.113Z,42.66
2019-03-30T16:59:45.430Z,42.66
2019-03-30T17:02:11.724Z,42.85
2019-03-30T17:04:38.036Z,42.80
2019-03-30T17:07:04.348Z,43.01
2019-03-30T17:09:30.662Z,43.01
2019-03-30T17:11:56.968Z,43.17
2019-03-30T17:14:23.298Z,43.37
2019-03-30T17:16:49.732Z,43.44
2019-03-30T17:19:16.065Z,43.53
2019-03-30T17:21:42.393Z,44.65
2019-03-30T17:24:08.718Z,43.63
2019-03-30T17:26:35.043Z,43.98
2019-03-30T17:29:01.369Z,43.87
2019-03-30T17:31:27.707Z,44.18
2019-03-30T17:33:54.027Z,44.28
2019-03-30T17:36:20.363Z,44.37
2019-03-30T17:38:46.696Z,44.52
2019-03-30T17:41:13.050Z,44.75
2019-03-30T17:43:39.385Z,45.07
2019-03-30T17:46:05.717Z,44.98
2019-03-30T17:48:32.047Z,45.16
2019-03-30T17:50:58.654Z,45.33
2019-03-30T17:53:24.699Z,45.28
2019-03-30T17:55:51.146Z,45.51
2019-03-30T17:58:17.471Z,45.81
2019-03-30T18:00:43.785Z,46.19
2019-03-30T18:03:10.173Z,46.93
2019-03-30T18:05:36.508Z,46.12
2019-03-30T18:08:02.837Z,46.55
2019-03-30T18:10:29.153Z,47.57
2019-03-30T18:12:55.474Z,46.58
2019-03-30T18:15:21.890Z,44.94
2019-03-30T18:17:48.222Z,45.28
2019-03-30T18:20:14.540Z,45.37
2019-03-30T18:22:40.864Z,45.77
2019-03-30T18:25:07.237Z,46.18
2019-03-30T18:27:33.568Z,46.18
2019-03-30T18:29:59.894Z,45.83
2019-03-30T18:32:26.239Z,46.29
2019-03-30T18:34:52.565Z,46.73
2019-03-30T18:37:18.893Z,46.25
2019-03-30T18:39:45.218Z,46.42
2019-03-30T18:42:11.544Z,46.83
2019-03-30T18:44:37.867Z,46.93
2019-03-30T18:47:04.234Z,47.30
2019-03-30T18:49:30.564Z,47.34
2019-03-30T18:51:56.895Z,47.84
2019-03-30T18:54:25.242Z,47.98
2019-03-30T18:56:49.897Z,47.97
2019-03-30T18:59:16.258Z,47.90
2019-03-30T19:01:42.584Z,47.85
2019-03-30T19:04:08.982Z,47.92
2019-03-30T19:06:35.306Z,47.90
2019-03-30T19:09:01.634Z,48.10
2019-03-30T19:11:27.957Z,48.23
2019-03-30T19:13:54.292Z,48.38
2019-03-30T19:16:20.616Z,48.28
2019-03-30T19:18:46.933Z,48.80
2019-03-30T19:21:13.258Z,49.03
2019-03-30T19:23:39.612Z,49.24
2019-03-30T19:26:05.962Z,49.19
2019-03-30T19:28:32.287Z,49.46
2019-03-30T19:30:58.621Z,49.32
2019-03-30T19:33:24.950Z,49.26
2019-03-30T19:35:51.279Z,49.37
2019-03-30T19:38:17.614Z,49.62
2019-03-30T19:40:43.937Z,49.85
2019-03-30T19:43:10.267Z,50.18
2019-03-30T19:45:36.596Z,50.34
2019-03-30T19:48:02.921Z,50.59
2019-03-30T19:50:29.246Z,50.73
2019-03-30T19:52:55.768Z,50.91
2019-03-30T19:55:22.089Z,50.99
2019-03-30T19:57:48.440Z,50.69
2019-03-30T20:00:14.765Z,50.95
2019-03-30T20:02:41.083Z,51.17
2019-03-30T20:05:07.410Z,50.68
2019-03-30T20:07:33.721Z,50.86
2019-03-30T20:10:00.056Z,51.29
2019-03-30T20:12:26.439Z,51.38
2019-03-30T20:14:52.785Z,51.64
2019-03-30T20:17:19.122Z,52.12
2019-03-30T20:19:45.436Z,52.21
2019-03-30T20:22:11.773Z,51.77
2019-03-30T20:24:38.111Z,52.23
2019-03-30T20:27:04.545Z,51.83
2019-03-30T20:29:30.878Z,51.67
2019-03-30T20:31:57.197Z,52.17
2019-03-30T20:34:23.536Z,52.77
2019-03-30T20:36:49.866Z,52.67
2019-03-30T20:39:16.191Z,52.88
2019-03-30T20:41:42.534Z,52.90
2019-03-30T20:44:08.854Z,52.73
2019-03-30T20:46:35.181Z,53.23
2019-03-30T20:49:01.508Z,53.34
2019-03-30T20:51:27.824Z,53.27
2019-03-30T20:53:54.145Z,53.43
2019-03-30T20:56:20.467Z,52.97
2019-03-30T20:58:46.903Z,53.18
2019-03-30T21:01:13.146Z,53.62
2019-03-30T21:03:39.471Z,54.10
2019-03-30T21:06:05.793Z,53.99
2019-03-30T21:08:32.142Z,53.84
2019-03-30T21:10:58.475Z,53.86
2019-03-30T21:13:24.814Z,53.64
2019-03-30T21:15:51.125Z,53.91
2019-03-30T21:18:17.441Z,53.75
2019-03-30T21:20:43.778Z,53.96
2019-03-30T21:23:10.138Z,54.68
2019-03-30T21:25:36.459Z,54.59
2019-03-30T21:28:02.777Z,54.97
2019-03-30T21:30:29.127Z,54.91
2019-03-30T21:32:55.463Z,55.33
2019-03-30T21:35:21.783Z,55.25
2019-03-30T21:37:48.092Z,55.26
2019-03-30T21:40:14.439Z,55.34
2019-03-30T21:42:40.767Z,55.61
2019-03-30T21:45:07.141Z,55.36
2019-03-30T21:47:33.471Z,55.32
2019-03-30T21:49:59.790Z,55.57
2019-03-30T21:52:26.143Z,55.64
2019-03-30T21:54:52.640Z,55.85
2019-03-30T21:57:18.926Z,56.56
2019-03-30T21:59:45.245Z,56.82
2019-03-30T22:02:11.570Z,57.61
2019-03-30T22:04:37.905Z,56.64
2019-03-30T22:07:04.235Z,56.70
2019-03-30T22:09:30.558Z,57.41
2019-03-30T22:11:56.882Z,57.69
2019-03-30T22:14:23.233Z,58.40
2019-03-30T22:16:49.561Z,58.10
2019-03-30T22:19:15.890Z,58.33
2019-03-30T22:21:42.209Z,58.42
2019-03-30T22:24:08.557Z,57.96
2019-03-30T22:26:34.875Z,58.24
2019-03-30T22:29:01.204Z,58.75
2019-03-30T22:31:27.548Z,58.97
2019-03-30T22:33:53.864Z,58.79
2019-03-30T22:36:20.201Z,59.60
2019-03-30T22:38:46.528Z,60.14
2019-03-30T22:41:12.854Z,59.30
2019-03-30T22:43:39.490Z,60.26
2019-03-30T22:46:07.502Z,60.24
2019-03-30T22:48:32.157Z,59.21
2019-03-30T22:50:58.479Z,59.34
2019-03-30T22:53:24.805Z,59.66
2019-03-30T22:55:51.252Z,59.71
2019-03-30T22:58:17.677Z,60.14
2019-03-30T23:00:44.123Z,59.66
2019-03-30T23:03:10.458Z,59.43
2019-03-30T23:05:36.785Z,59.39
2019-03-30T23:08:03.094Z,59.64
2019-03-30T23:10:29.410Z,59.82
2019-03-30T23:12:55.711Z,59.75
2019-03-30T23:15:22.022Z,60.04
2019-03-30T23:17:48.328Z,59.96
2019-03-30T23:20:14.633Z,60.60
2019-03-30T23:22:40.945Z,60.42
2019-03-30T23:25:07.257Z,60.29
2019-03-30T23:27:33.555Z,60.04
2019-03-30T23:29:59.894Z,60.00
2019-03-30T23:32:26.221Z,60.78
2019-03-30T23:34:52.550Z,60.89
2019-03-30T23:37:18.853Z,61.05
2019-03-30T23:39:45.159Z,61.66
2019-03-30T23:42:11.462Z,60.64
2019-03-30T23:44:37.809Z,61.30
2019-03-30T23:47:04.119Z,60.52
2019-03-30T23:49:30.439Z,60.63
2019-03-30T23:51:56.752Z,60.87
2019-03-30T23:54:23.077Z,61.11
2019-03-30T23:56:49.398Z,61.66
2019-03-30T23:59:15.700Z,61.14
